Time;durP1;ratioP1;P1;durP2;ratioP2;P2;SDS_P1;SDS_P2;PMS_P1;PMS_P2;Temp;Humidity;BMP_temperature;BMP_pressure;BME280_temperature;BME280_humidity;BME280_pressure;Samples;Min_cycle;Max_cycle;Signal;HPM_P1;HPM_P2
2021/01/19 04:14:17;;;;;;;3.55;2.47;;;-1.00;99.90;;;;;;6215764;22;20039;-77
2021/01/19 04:16:42;;;;;;;4.55;2.70;;;-0.80;99.90;;;;;;6216254;23;20001;-77
2021/01/19 04:19:08;;;;;;;4.05;2.78;;;-1.00;99.90;;;;;;6189804;23;20005;-78
2021/01/19 04:21:34;;;;;;;9.68;3.60;;;-1.00;99.90;;;;;;6189704;23;20362;-77
2021/01/19 04:23:59;;;;;;;5.47;3.05;;;-1.10;99.90;;;;;;6188791;23;20317;-78
2021/01/19 04:26:25;;;;;;;4.72;2.15;;;-1.20;99.90;;;;;;6189605;23;20036;-78
2021/01/19 04:28:51;;;;;;;5.43;2.45;;;-1.10;99.90;;;;;;6216185;23;20035;-78
2021/01/19 04:31:16;;;;;;;4.20;2.65;;;-1.10;99.90;;;;;;6216141;23;20008;-77
2021/01/19 04:33:42;;;;;;;5.28;3.38;;;-1.20;99.90;;;;;;6215730;23;20068;-77
2021/01/19 04:36:08;;;;;;;5.45;2.45;;;-1.20;99.90;;;;;;6189767;23;20083;-78
2021/01/19 04:38:33;;;;;;;4.78;2.30;;;-1.20;99.90;;;;;;6217123;23;20005;-78
2021/01/19 04:40:59;;;;;;;3.22;2.22;;;-1.20;99.90;;;;;;6190752;23;20384;-78
2021/01/19 04:43:26;;;;;;;4.40;2.40;;;-1.10;99.90;;;;;;6190697;23;20016;-78
2021/01/19 04:45:52;;;;;;;3.35;2.13;;;-1.20;99.90;;;;;;6218869;23;20005;-77
2021/01/19 04:48:19;;;;;;;2.97;2.38;;;-1.20;99.90;;;;;;6222939;23;20005;-77
2021/01/19 04:50:45;;;;;;;2.72;2.17;;;-1.20;99.90;;;;;;6196596;23;20016;-77
2021/01/19 04:53:13;;;;;;;3.47;2.03;;;-1.20;99.90;;;;;;6219111;23;20001;-78
2021/01/19 04:55:52;;;;;;;3.40;1.70;;;-1.20;99.90;;;;;;6191898;23;20000;-78
2021/01/19 04:58:22;;;;;;;2.50;1.60;;;-1.30;99.90;;;;;;6218935;23;19996;-78
2021/01/19 05:01:07;;;;;;;4.40;1.77;;;-1.30;99.90;;;;;;6191936;23;20001;-79
2021/01/19 05:03:57;;;;;;;1.80;1.50;;;-1.30;99.90;;;;;;6189574;23;20009;-79
2021/01/19 05:06:41;;;;;;;6.03;2.00;;;-1.20;99.90;;;;;;6215991;23;20743;-80
2021/01/19 05:09:13;;;;;;;3.03;2.13;;;-1.30;99.90;;;;;;6218022;23;20007;-80
2021/01/19 05:11:52;;;;;;;3.33;1.60;;;-1.30;99.90;;;;;;6189941;23;20008;-80
2021/01/19 05:14:22;;;;;;;3.22;1.63;;;-1.30;99.90;;;;;;6190093;23;20009;-81
2021/01/19 05:16:51;;;;;;;1.77;1.30;;;-1.30;99.90;;;;;;6189740;23;20025;-82
2021/01/19 05:19:21;;;;;;;1.70;1.40;;;-1.30;99.90;;;;;;6190173;23;20083;-81
2021/01/19 05:21:52;;;;;;;2.22;1.40;;;-1.30;99.90;;;;;;6190015;23;20004;-83
2021/01/19 05:24:17;;;;;;;3.95;1.58;;;-1.30;99.90;;;;;;6216727;23;20043;-80
2021/01/19 05:26:43;;;;;;;2.97;1.10;;;-1.30;99.90;;;;;;6215835;23;20001;-79
2021/01/19 05:29:09;;;;;;;2.13;1.10;;;-1.30;99.90;;;;;;6216332;23;20382;-79
2021/01/19 05:31:35;;;;;;;3.00;1.35;;;-1.30;99.90;;;;;;6215255;23;20326;-79
2021/01/19 05:34:12;;;;;;;1.98;1.23;;;-1.30;99.90;;;;;;6215077;23;20007;-81
2021/01/19 05:36:47;;;;;;;1.80;1.23;;;-1.30;99.90;;;;;;6190209;23;20001;-80
2021/01/19 05:39:18;;;;;;;3.10;1.50;;;-1.50;98.60;;;;;;6218426;23;20023;-79
2021/01/19 05:41:46;;;;;;;2.88;1.77;;;-1.50;98.60;;;;;;6192450;23;20085;-79
2021/01/19 05:44:26;;;;;;;3.78;1.40;;;-1.50;98.40;;;;;;6190514;23;20566;-80
2021/01/19 05:47:05;;;;;;;3.28;1.20;;;-1.50;98.60;;;;;;6188183;23;20016;-82
2021/01/19 05:49:42;;;;;;;2.83;1.38;;;-1.70;98.50;;;;;;6190570;23;20458;-81
2021/01/19 05:52:12;;;;;;;2.28;1.40;;;-1.60;99.30;;;;;;6190401;23;20004;-82
2021/01/19 05:54:43;;;;;;;2.10;1.17;;;-1.80;98.40;;;;;;6189198;23;20004;-84
2021/01/19 05:57:10;;;;;;;2.88;1.98;;;-1.80;98.60;;;;;;6218265;23;20012;-82
2021/01/19 05:59:40;;;;;;;2.78;1.35;;;-1.80;98.60;;;;;;6216112;23;20001;-81
2021/01/19 06:02:08;;;;;;;1.30;1.13;;;-1.80;98.60;;;;;;6190856;23;20315;-82
2021/01/19 06:04:36;;;;;;;4.07;1.23;;;-1.90;98.50;;;;;;6190116;23;20016;-82
2021/01/19 06:07:03;;;;;;;5.25;2.13;;;-1.90;98.60;;;;;;6217467;23;20412;-82
2021/01/19 06:09:29;;;;;;;2.65;1.58;;;-1.90;98.30;;;;;;6190522;23;20007;-82
2021/01/19 06:11:56;;;;;;;2.90;1.15;;;-1.90;98.10;;;;;;6217099;23;20004;-82
2021/01/19 06:14:23;;;;;;;1.98;1.23;;;-1.90;98.00;;;;;;6218146;23;20012;-82
2021/01/19 06:16:49;;;;;;;1.88;1.23;;;-1.90;97.40;;;;;;6218610;23;20051;-82
2021/01/19 06:19:29;;;;;;;1.08;0.82;;;-2.00;97.20;;;;;;6193231;23;20373;-82
2021/01/19 06:21:56;;;;;;;0.93;0.82;;;-2.00;97.70;;;;;;6191778;23;20032;-82
2021/01/19 06:24:39;;;;;;;2.00;0.80;;;-2.00;97.90;;;;;;6193215;23;20015;-81
2021/01/19 06:27:07;;;;;;;1.25;0.98;;;-2.00;98.00;;;;;;6191473;23;20009;-82
2021/01/19 06:29:34;;;;;;;0.95;0.85;;;-2.00;98.00;;;;;;6196145;23;20008;-82
2021/01/19 06:32:03;;;;;;;2.97;1.10;;;-2.00;97.90;;;;;;6226619;23;20023;-82
2021/01/19 06:34:37;;;;;;;1.60;0.90;;;-2.00;97.80;;;;;;6222102;23;20069;-83
2021/01/19 06:37:04;;;;;;;2.65;1.20;;;-2.00;97.80;;;;;;6196308;23;20001;-82
2021/01/19 06:39:38;;;;;;;2.10;1.05;;;-2.00;97.80;;;;;;6198227;23;20004;-83
2021/01/19 06:42:15;;;;;;;2.50;1.55;;;-2.00;97.70;;;;;;6198177;23;20448;-82
2021/01/19 06:44:46;;;;;;;2.35;1.10;;;-2.00;97.70;;;;;;6194083;23;20043;-81
2021/01/19 06:47:18;;;;;;;2.78;1.38;;;-2.00;97.80;;;;;;6195354;23;20008;-82
2021/01/19 06:49:44;;;;;;;3.90;1.75;;;-2.00;97.60;;;;;;6194817;23;20015;-83
2021/01/19 06:52:15;;;;;;;2.53;1.60;;;-2.00;97.50;;;;;;6195121;23;20004;-82
2021/01/19 06:54:53;;;;;;;2.97;1.80;;;-1.90;97.50;;;;;;6221057;23;20035;-82
2021/01/19 06:57:43;;;;;;;6.05;1.75;;;-1.90;97.10;;;;;;6222065;23;20071;-83
2021/01/19 07:00:09;;;;;;;1.65;1.48;;;-1.90;96.80;;;;;;6194763;23;20005;-82
2021/01/19 07:02:39;;;;;;;1.95;1.50;;;-1.90;96.80;;;;;;6197092;23;20091;-82
2021/01/19 07:05:16;;;;;;;2.22;1.48;;;-1.90;97.00;;;;;;6197336;23;20012;-82
2021/01/19 07:07:53;;;;;;;3.10;1.40;;;-1.90;97.30;;;;;;6222916;23;20294;-82
2021/01/19 07:10:20;;;;;;;1.95;1.30;;;-1.90;97.30;;;;;;6223057;23;20373;-82
2021/01/19 07:13:08;;;;;;;3.58;1.40;;;-1.90;97.00;;;;;;6205860;23;20072;-81
2021/01/19 07:16:06;;;;;;;1.95;1.10;;;-1.90;95.80;;;;;;6205835;23;20005;-82
2021/01/19 07:19:20;;;;;;;3.97;1.00;;;-2.00;95.90;;;;;;6200292;23;20000;-83
2021/01/19 07:22:05;;;;;;;12.52;6.60;;;-2.00;96.30;;;;;;6205681;23;20439;-82
2021/01/19 07:24:41;;;;;;;4.30;2.75;;;-2.00;96.20;;;;;;6197891;23;20348;-85
2021/01/19 07:27:12;;;;;;;3.60;2.05;;;-2.00;95.60;;;;;;6198219;23;20429;-84
2021/01/19 07:29:41;;;;;;;2.53;1.92;;;-2.00;95.50;;;;;;6194144;23;20035;-86
2021/01/19 07:32:25;;;;;;;2.33;1.20;;;-1.90;95.40;;;;;;6202137;23;20068;-81
2021/01/19 07:34:51;;;;;;;3.25;1.00;;;-1.90;95.20;;;;;;6198328;23;20008;-81
2021/01/19 07:37:32;;;;;;;4.38;1.23;;;-1.80;95.40;;;;;;6222757;23;20009;-81
2021/01/19 07:39:58;;;;;;;2.00;1.23;;;-1.80;95.00;;;;;;6195167;23;20024;-83
2021/01/19 07:42:24;;;;;;;3.47;1.30;;;-1.80;94.70;;;;;;6192699;23;20015;-81
2021/01/19 07:44:58;;;;;;;1.27;1.05;;;-1.70;94.30;;;;;;6221329;23;20443;-81
2021/01/19 07:47:35;;;;;;;0.93;0.90;;;-1.70;94.20;;;;;;6192251;23;20008;-81
2021/01/19 07:50:21;;;;;;;3.20;1.30;;;-1.70;94.50;;;;;;6194257;23;20008;-82
2021/01/19 07:52:48;;;;;;;1.50;1.00;;;-1.60;94.20;;;;;;6219019;23;20004;-83
2021/01/19 07:55:15;;;;;;;4.15;1.50;;;-1.60;94.10;;;;;;6195960;23;20008;-83
2021/01/19 07:57:43;;;;;;;3.40;1.38;;;-1.50;93.60;;;;;;6193253;23;20000;-81
2021/01/19 08:00:10;;;;;;;4.05;1.00;;;-1.50;93.60;;;;;;6193756;23;20026;-82
2021/01/19 08:02:36;;;;;;;3.97;1.33;;;-1.40;93.40;;;;;;6193169;23;20019;-83
2021/01/19 08:05:08;;;;;;;1.23;1.02;;;-1.40;92.60;;;;;;6195032;23;20047;-83
2021/01/19 08:07:44;;;;;;;2.92;1.35;;;-1.40;91.90;;;;;;6224475;23;20015;-81
2021/01/19 08:10:23;;;;;;;4.30;1.42;;;-1.30;92.40;;;;;;6195879;23;20084;-83
2021/01/19 08:12:52;;;;;;;2.45;1.10;;;-1.30;92.20;;;;;;6193856;23;20063;-83
2021/01/19 08:15:29;;;;;;;4.25;1.20;;;-1.20;91.80;;;;;;6195754;23;20000;-84
2021/01/19 08:17:56;;;;;;;7.00;1.30;;;-1.10;91.80;;;;;;6202675;23;20008;-82
2021/01/19 08:20:26;;;;;;;3.92;1.20;;;-1.00;91.30;;;;;;6233866;23;20001;-82
2021/01/19 08:22:54;;;;;;;1.40;1.17;;;-0.90;91.40;;;;;;6204987;23;20001;-82
2021/01/19 08:25:24;;;;;;;2.20;0.85;;;-0.80;91.30;;;;;;6201593;23;20008;-83
2021/01/19 08:27:50;;;;;;;3.13;1.23;;;-0.70;91.00;;;;;;6227095;23;19997;-83
2021/01/19 08:30:30;;;;;;;4.30;1.38;;;-0.70;90.00;;;;;;6196193;23;20080;-84
2021/01/19 08:32:58;;;;;;;2.78;1.10;;;-0.60;90.40;;;;;;6199266;23;20001;-84
2021/01/19 08:35:28;;;;;;;3.92;1.40;;;-0.40;90.60;;;;;;6196254;23;20058;-84
2021/01/19 08:37:56;;;;;;;3.40;1.20;;;-0.20;89.70;;;;;;6195163;23;20008;-84
2021/01/19 08:40:23;;;;;;;2.15;1.25;;;;;;;;;;6196988;23;20005;-85
2021/01/19 08:43:05;;;;;;;2.05;1.23;;;0.10;86.20;;;;;;6221192;23;20045;-85
2021/01/19 08:45:33;;;;;;;0.93;0.82;;;0.30;84.70;;;;;;6195699;23;20375;-85
2021/01/19 08:48:04;;;;;;;1.48;0.88;;;0.30;84.30;;;;;;6193380;23;20448;-84
2021/01/19 08:50:35;;;;;;;11.27;1.40;;;0.40;83.80;;;;;;6194638;23;20448;-84
2021/01/19 08:53:24;;;;;;;9.95;1.33;;;0.30;81.70;;;;;;6202893;23;20032;-84
2021/01/19 08:55:50;;;;;;;1.02;0.90;;;;;;;;;;6226744;23;20001;-84
2021/01/19 08:58:23;;;;;;;4.05;1.50;;;0.30;82.20;;;;;;6228393;23;20060;-85
2021/01/19 09:00:49;;;;;;;3.03;2.00;;;0.30;83.50;;;;;;6193972;23;20340;-84
2021/01/19 09:03:16;;;;;;;3.33;1.90;;;0.30;82.60;;;;;;6194025;23;20008;-84
2021/01/19 09:05:42;;;;;;;2.63;1.40;;;0.30;82.40;;;;;;6193323;23;20356;-84
2021/01/19 09:08:18;;;;;;;2.88;1.55;;;0.40;82.10;;;;;;6194026;23;20001;-83
2021/01/19 09:10:45;;;;;;;1.98;1.15;;;0.40;81.10;;;;;;6193773;23;20046;-84
2021/01/19 09:13:11;;;;;;;2.30;1.10;;;0.40;81.90;;;;;;6193194;23;20333;-84
2021/01/19 09:15:42;;;;;;;2.20;1.30;;;0.50;81.70;;;;;;6196069;23;20321;-84
2021/01/19 09:18:13;;;;;;;2.45;1.40;;;0.60;81.60;;;;;;6195439;23;20056;-84
2021/01/19 09:20:40;;;;;;;10.25;2.78;;;0.70;80.60;;;;;;6196121;23;20012;-84
2021/01/19 09:23:15;;;;;;;4.43;1.60;;;0.60;79.20;;;;;;6194268;23;20001;-84
2021/01/19 09:25:42;;;;;;;4.25;1.88;;;0.60;80.20;;;;;;6194339;23;20008;-83
2021/01/19 09:28:08;;;;;;;1.38;1.10;;;0.60;80.80;;;;;;6194559;23;20005;-84
2021/01/19 09:30:38;;;;;;;3.70;1.15;;;0.80;80.20;;;;;;6221085;23;20020;-84
2021/01/19 09:33:09;;;;;;;4.20;0.93;;;0.90;78.80;;;;;;6193754;23;20032;-84
2021/01/19 09:35:36;;;;;;;2.37;1.50;;;1.10;79.30;;;;;;6219908;23;20092;-84
2021/01/19 09:38:03;;;;;;;1.33;1.23;;;1.40;78.90;;;;;;6194169;23;20231;-85
2021/01/19 09:40:34;;;;;;;1.83;1.05;;;1.60;77.10;;;;;;6194667;23;20032;-84
2021/01/19 09:43:07;;;;;;;1.58;0.90;;;1.60;76.30;;;;;;6194745;23;20045;-82
2021/01/19 09:45:37;;;;;;;4.88;2.53;;;1.60;75.20;;;;;;6197864;23;20000;-83
2021/01/19 09:48:03;;;;;;;4.90;3.00;;;1.60;75.30;;;;;;6197407;23;20008;-82
2021/01/19 09:50:29;;;;;;;6.10;2.13;;;1.70;75.00;;;;;;6196378;23;20000;-83
2021/01/19 09:53:26;;;;;;;9.25;2.50;;;1.80;74.70;;;;;;6196005;23;20054;-84
2021/01/19 09:56:01;;;;;;;2.42;1.30;;;2.10;74.60;;;;;;6200525;23;20008;-83
2021/01/19 09:58:29;;;;;;;2.20;1.10;;;2.20;73.10;;;;;;6224714;23;20011;-83
2021/01/19 10:00:56;;;;;;;1.23;0.90;;;2.60;92.40;;;;;;6195795;23;20087;-83
2021/01/19 10:03:26;;;;;;;1.48;0.98;;;2.40;71.00;;;;;;6197488;23;20016;-84
2021/01/19 10:06:02;;;;;;;0.68;0.47;;;2.40;71.20;;;;;;6194159;23;20001;-84
2021/01/19 10:08:27;;;;;;;1.08;0.63;;;2.40;70.40;;;;;;6224616;23;20012;-83
2021/01/19 10:10:53;;;;;;;1.38;0.63;;;2.50;70.70;;;;;;6196061;23;20004;-83
2021/01/19 10:13:45;;;;;;;2.00;0.93;;;2.70;71.50;;;;;;6193748;23;20008;-84
2021/01/19 10:16:11;;;;;;;2.00;0.60;;;2.70;68.60;;;;;;6160807;23;20005;-83
2021/01/19 10:18:37;;;;;;;2.17;0.70;;;2.70;68.60;;;;;;6194821;23;20357;-84
2021/01/19 10:21:02;;;;;;;0.93;0.70;;;2.80;69.20;;;;;;6222240;23;20047;-84
2021/01/19 10:23:33;;;;;;;2.55;1.00;;;2.90;69.10;;;;;;6195130;23;20005;-83
2021/01/19 10:26:06;;;;;;;0.77;0.75;;;3.00;67.50;;;;;;6197605;23;20015;-84
2021/01/19 10:28:39;;;;;;;1.02;0.80;;;3.10;68.00;;;;;;6204939;23;20005;-82
2021/01/19 10:31:22;;;;;;;1.38;0.88;;;3.30;67.90;;;;;;6212869;23;20023;-81
2021/01/19 10:34:01;;;;;;;1.60;0.80;;;3.50;66.60;;;;;;6222844;23;20005;-82
2021/01/19 10:36:29;;;;;;;2.80;1.20;;;3.50;65.30;;;;;;6221914;23;20005;-84
2021/01/19 10:39:00;;;;;;;1.77;0.77;;;3.60;65.90;;;;;;6223683;23;20043;-84
2021/01/19 10:41:28;;;;;;;2.03;1.00;;;3.80;65.90;;;;;;6195112;23;20005;-83
2021/01/19 10:43:55;;;;;;;1.67;0.90;;;3.90;65.20;;;;;;6193686;23;20104;-84
2021/01/19 10:46:33;;;;;;;2.15;1.00;;;3.90;64.90;;;;;;6192470;23;20029;-82
2021/01/19 16:52:52;;;;;;;2.15;0.60;;;4.20;92.60;;;;;;6223436;22;20111;-84
2021/01/19 16:55:19;;;;;;;0.82;0.65;;;4.20;92.40;;;;;;6222717;23;20086;-83
2021/01/19 16:57:48;;;;;;;1.98;0.60;;;4.20;91.70;;;;;;6220610;23;20005;-84
2021/01/19 17:00:14;;;;;;;2.03;0.40;;;4.30;91.10;;;;;;6197080;23;20480;-83
2021/01/19 17:02:40;;;;;;;3.08;0.80;;;4.30;90.80;;;;;;6194626;23;20008;-83
2021/01/19 17:05:06;;;;;;;1.67;0.77;;;4.30;90.60;;;;;;6222032;23;20027;-83
2021/01/19 17:07:35;;;;;;;3.50;0.70;;;4.30;90.30;;;;;;6195303;23;20015;-83
2021/01/19 17:10:03;;;;;;;1.17;0.50;;;4.30;89.40;;;;;;6221691;23;20088;-83
2021/01/19 17:12:28;;;;;;;1.65;0.35;;;4.40;88.30;;;;;;6194289;23;20008;-83
2021/01/19 17:14:54;;;;;;;1.90;0.52;;;4.50;86.50;;;;;;6222181;23;20024;-84
2021/01/19 17:17:20;;;;;;;1.17;0.73;;;4.50;85.90;;;;;;6194945;23;20043;-84
2021/01/19 17:19:45;;;;;;;1.13;0.40;;;4.50;86.10;;;;;;6221236;23;20008;-83
2021/01/19 17:22:11;;;;;;;1.20;0.50;;;4.60;84.70;;;;;;6193967;23;20008;-82
2021/01/19 17:24:37;;;;;;;2.10;0.60;;;4.60;83.60;;;;;;6194043;23;20008;-84
2021/01/19 17:27:03;;;;;;;0.40;0.40;;;4.60;83.00;;;;;;6220977;23;20078;-84
2021/01/19 17:29:35;;;;;;;2.88;0.85;;;4.80;81.70;;;;;;6194507;23;20005;-83
2021/01/19 17:32:01;;;;;;;3.17;0.73;;;4.80;81.60;;;;;;6218821;23;20051;-83
2021/01/19 17:34:29;;;;;;;1.25;0.50;;;4.90;80.60;;;;;;6193648;23;20037;-83
2021/01/19 17:36:58;;;;;;;0.82;0.47;;;4.90;79.70;;;;;;6194010;23;20339;-83
2021/01/19 17:39:24;;;;;;;2.28;0.70;;;5.00;79.90;;;;;;6219176;23;20000;-84
2021/01/19 17:41:50;;;;;;;0.50;0.32;;;5.00;79.20;;;;;;6192980;23;20074;-83
2021/01/19 17:44:15;;;;;;;0.98;0.30;;;5.10;79.20;;;;;;6219583;23;20076;-82
2021/01/19 17:46:41;;;;;;;2.72;0.70;;;5.10;79.30;;;;;;6193094;23;20005;-82
2021/01/19 17:49:06;;;;;;;0.50;0.30;;;5.10;79.10;;;;;;6219287;23;20068;-83
2021/01/19 17:51:32;;;;;;;1.08;0.40;;;5.10;79.50;;;;;;6194540;23;20508;-83
2021/01/19 17:53:58;;;;;;;1.13;0.68;;;5.10;80.30;;;;;;6222015;23;20348;-83
2021/01/19 17:56:24;;;;;;;2.60;0.93;;;5.10;80.50;;;;;;6222080;23;20000;-84
2021/01/19 17:58:50;;;;;;;3.95;2.47;;;5.10;81.20;;;;;;6194640;23;20008;-84
2021/01/19 18:01:15;;;;;;;3.42;0.50;;;5.10;81.50;;;;;;6201161;23;20091;-84
2021/01/19 18:03:52;;;;;;;0.93;0.70;;;5.10;82.40;;;;;;6221578;23;20023;-84
2021/01/19 18:06:28;;;;;;;0.73;0.50;;;5.10;83.30;;;;;;6221746;23;20001;-83
2021/01/19 18:08:56;;;;;;;1.45;0.70;;;5.00;84.90;;;;;;6195038;23;20015;-84
2021/01/19 18:11:21;;;;;;;3.00;1.13;;;5.00;86.00;;;;;;6221832;23;20005;-83
2021/01/19 18:13:47;;;;;;;3.53;1.67;;;5.00;86.90;;;;;;6195493;23;20079;-83
2021/01/19 18:16:36;;;;;;;7.40;2.90;;;5.00;87.00;;;;;;6195625;23;20000;-82
2021/01/19 18:19:04;;;;;;;2.13;0.90;;;5.00;86.00;;;;;;6225925;23;19996;-84
2021/01/19 18:21:30;;;;;;;0.65;0.32;;;5.10;85.60;;;;;;6200561;23;20345;-83
2021/01/19 18:23:58;;;;;;;1.30;0.60;;;5.10;85.60;;;;;;6229450;23;20056;-84
2021/01/19 18:26:42;;;;;;;1.08;0.63;;;5.10;85.00;;;;;;6197080;23;20008;-83
2021/01/19 18:29:13;;;;;;;0.40;0.40;;;5.10;85.00;;;;;;6197654;23;20011;-83
2021/01/19 18:31:53;;;;;;;2.35;1.92;;;5.20;85.10;;;;;;6225553;23;20000;-84
2021/01/19 18:34:20;;;;;;;0.40;0.30;;;5.30;84.80;;;;;;6226671;23;20003;-83
2021/01/19 18:37:09;;;;;;;0.45;0.45;;;5.40;84.60;;;;;;6199904;23;20011;-83
2021/01/19 18:39:37;;;;;;;0.47;0.20;;;5.40;85.10;;;;;;6185518;23;20005;-84
2021/01/19 18:42:08;;;;;;;1.60;0.43;;;5.40;85.70;;;;;;6226050;23;20339;-83
2021/01/19 18:44:34;;;;;;;1.27;0.28;;;5.40;85.80;;;;;;6206675;23;20004;-83
2021/01/19 18:47:00;;;;;;;0.38;0.38;;;5.40;85.90;;;;;;6213240;23;20019;-83
2021/01/19 18:49:26;;;;;;;0.65;0.30;;;5.40;86.90;;;;;;6212432;23;20028;-82
2021/01/19 18:51:56;;;;;;;0.80;0.50;;;5.40;86.90;;;;;;6238575;23;20039;-83
2021/01/19 18:54:22;;;;;;;1.25;0.40;;;5.40;88.10;;;;;;6233777;23;20000;-83
2021/01/19 18:56:47;;;;;;;0.82;0.60;;;5.30;89.20;;;;;;6209690;23;20235;-84
2021/01/19 18:59:13;;;;;;;1.40;0.50;;;5.30;90.20;;;;;;6228487;23;20095;-83
2021/01/19 19:01:40;;;;;;;0.63;0.50;;;5.30;90.60;;;;;;6225747;23;20062;-84
2021/01/19 19:04:06;;;;;;;0.50;0.50;;;5.20;91.20;;;;;;6197412;23;20012;-83
2021/01/19 19:06:32;;;;;;;2.58;0.77;;;5.20;91.90;;;;;;6224669;23;20004;-83
2021/01/19 19:08:57;;;;;;;0.63;0.60;;;5.20;92.50;;;;;;6224088;23;20001;-83
2021/01/19 19:11:27;;;;;;;1.08;0.30;;;;;;;;;;6223201;23;20008;-83
2021/01/19 19:13:53;;;;;;;0.95;0.32;;;5.10;93.90;;;;;;6223372;23;20011;-84
2021/01/19 19:16:31;;;;;;;1.48;0.40;;;5.00;95.00;;;;;;6197302;23;20001;-82
2021/01/19 19:18:58;;;;;;;0.38;0.38;;;4.90;95.60;;;;;;6197420;23;20377;-82
2021/01/19 19:21:24;;;;;;;1.40;0.40;;;;;;;;;;6196588;23;20016;-81
2021/01/19 19:23:50;;;;;;;2.58;0.40;;;4.70;96.50;;;;;;6222966;23;20059;-83
2021/01/19 19:26:16;;;;;;;1.17;0.40;;;4.70;96.80;;;;;;6223772;23;20068;-82
2021/01/19 19:28:43;;;;;;;0.43;0.32;;;4.70;97.20;;;;;;6222176;23;20001;-82
2021/01/19 19:31:09;;;;;;;0.40;0.40;;;4.70;97.40;;;;;;6194917;23;20005;-82
2021/01/19 19:33:36;;;;;;;1.00;0.30;;;4.70;97.30;;;;;;6221603;23;19997;-82
2021/01/19 19:36:02;;;;;;;0.40;0.30;;;4.80;96.90;;;;;;6195491;23;20020;-82
2021/01/19 19:38:28;;;;;;;0.90;0.50;;;4.80;96.60;;;;;;6222302;23;20028;-82
2021/01/19 19:40:53;;;;;;;1.20;0.52;;;4.80;96.60;;;;;;6194259;23;20016;-82
2021/01/19 19:43:19;;;;;;;1.13;0.40;;;4.80;96.80;;;;;;6221068;23;20001;-82
2021/01/19 19:45:45;;;;;;;1.67;0.20;;;4.80;96.70;;;;;;6221259;23;20016;-83
2021/01/19 19:48:10;;;;;;;0.50;0.28;;;4.90;96.60;;;;;;6194142;23;20084;-82
2021/01/19 19:50:36;;;;;;;1.95;0.40;;;4.90;96.40;;;;;;6220514;23;20466;-82
2021/01/19 19:53:02;;;;;;;0.40;0.25;;;4.90;96.50;;;;;;6192712;23;20025;-79
2021/01/19 19:55:28;;;;;;;1.15;0.40;;;4.90;96.30;;;;;;6221131;23;20080;-80
2021/01/19 19:57:53;;;;;;;2.30;0.35;;;4.90;96.50;;;;;;6193733;23;20004;-81
2021/01/19 20:00:19;;;;;;;0.50;0.30;;;4.90;96.40;;;;;;6222259;23;20401;-81
2021/01/19 20:02:45;;;;;;;2.08;0.32;;;4.90;96.30;;;;;;6220537;23;20158;-82
2021/01/19 20:05:11;;;;;;;1.83;0.80;;;5.00;96.00;;;;;;6193802;23;20001;-82
2021/01/19 20:07:41;;;;;;;0.70;0.70;;;5.00;96.00;;;;;;6220697;23;20000;-81
2021/01/19 20:10:08;;;;;;;0.70;0.60;;;5.00;95.80;;;;;;6193949;23;20009;-82
2021/01/19 20:12:33;;;;;;;4.05;3.75;;;5.00;95.90;;;;;;6193385;23;20036;-82
2021/01/19 20:14:59;;;;;;;0.65;0.40;;;4.90;95.90;;;;;;6220929;23;20008;-82
2021/01/19 20:17:25;;;;;;;1.23;0.45;;;4.90;95.70;;;;;;6221765;23;20310;-82
2021/01/19 20:19:50;;;;;;;0.68;0.60;;;4.90;95.50;;;;;;6219017;23;20555;-82
2021/01/19 20:22:16;;;;;;;1.30;0.60;;;4.90;95.40;;;;;;6194334;23;20008;-82
2021/01/19 20:24:41;;;;;;;0.85;0.40;;;5.00;95.20;;;;;;6195097;23;20463;-81
2021/01/19 20:27:07;;;;;;;0.90;0.47;;;5.00;95.00;;;;;;6221953;23;20009;-82
2021/01/19 20:29:33;;;;;;;1.63;0.47;;;5.00;94.40;;;;;;6222723;23;20005;-82
2021/01/19 20:31:59;;;;;;;0.73;0.30;;;5.10;94.20;;;;;;6222121;23;20001;-82
2021/01/19 20:34:25;;;;;;;0.52;0.40;;;5.10;93.80;;;;;;6221220;23;20051;-82
2021/01/19 20:37:01;;;;;;;0.38;0.32;;;5.10;93.70;;;;;;6195176;23;20005;-81
2021/01/19 20:39:27;;;;;;;0.70;0.20;;;5.10;93.50;;;;;;6196365;23;20009;-81
2021/01/19 20:41:53;;;;;;;1.90;0.50;;;5.10;93.10;;;;;;6195663;23;20009;-81
2021/01/19 20:44:19;;;;;;;0.50;0.32;;;5.10;92.80;;;;;;6196520;23;20023;-82
2021/01/19 20:46:45;;;;;;;0.90;0.47;;;5.20;92.40;;;;;;6222859;23;20031;-80
2021/01/19 20:49:11;;;;;;;1.25;0.45;;;5.20;91.90;;;;;;6222739;23;20000;-80
2021/01/19 20:51:41;;;;;;;0.50;0.50;;;5.30;91.30;;;;;;6224398;23;20043;-80
2021/01/19 20:54:08;;;;;;;0.55;0.30;;;5.30;90.70;;;;;;6205126;23;20021;-81
2021/01/19 20:56:37;;;;;;;0.85;0.30;;;5.40;90.00;;;;;;6223060;23;20420;-81
2021/01/19 20:59:04;;;;;;;0.85;0.55;;;5.40;88.90;;;;;;6195928;23;20087;-82
2021/01/19 21:01:30;;;;;;;0.70;0.20;;;5.50;88.50;;;;;;6222353;23;20000;-82
2021/01/19 21:03:56;;;;;;;0.28;0.25;;;5.40;88.40;;;;;;6195298;23;20452;-81
2021/01/19 21:06:26;;;;;;;0.45;0.30;;;5.40;88.00;;;;;;6198729;23;20011;-81
2021/01/19 21:08:52;;;;;;;0.80;0.55;;;5.40;88.10;;;;;;6198653;23;20004;-81
2021/01/19 21:11:18;;;;;;;0.30;0.30;;;5.40;87.70;;;;;;6199785;23;20008;-81
2021/01/19 21:13:48;;;;;;;1.38;0.43;;;5.30;87.50;;;;;;6222084;23;20008;-81
2021/01/19 21:16:14;;;;;;;2.22;0.55;;;5.40;87.20;;;;;;6220687;23;20005;-81
2021/01/19 21:18:40;;;;;;;0.63;0.40;;;5.40;86.70;;;;;;6220828;23;20076;-83
2021/01/19 21:21:06;;;;;;;1.13;0.50;;;5.40;86.20;;;;;;6194058;23;20083;-82
2021/01/19 21:23:32;;;;;;;0.30;0.30;;;5.40;85.40;;;;;;6221424;23;20001;-82
2021/01/19 21:25:57;;;;;;;0.85;0.50;;;5.40;85.20;;;;;;6221409;23;20080;-82
2021/01/19 21:28:23;;;;;;;0.80;0.47;;;5.40;85.10;;;;;;6194534;23;20004;-81
2021/01/19 21:30:49;;;;;;;1.15;0.65;;;5.30;84.30;;;;;;6194181;23;20009;-81
2021/01/19 21:33:14;;;;;;;0.63;0.50;;;5.40;83.40;;;;;;6221422;23;20027;-81
2021/01/19 21:35:40;;;;;;;0.75;0.40;;;5.40;83.10;;;;;;6221809;23;20004;-81
2021/01/19 21:38:09;;;;;;;2.05;0.55;;;5.40;83.00;;;;;;6195364;23;20004;-81
2021/01/19 21:40:34;;;;;;;1.10;0.60;;;5.40;83.00;;;;;;6221710;23;20424;-81
2021/01/19 21:43:00;;;;;;;0.93;0.70;;;5.40;82.80;;;;;;6194213;23;20005;-83
2021/01/19 21:45:28;;;;;;;1.80;0.45;;;5.40;83.00;;;;;;6194900;23;20008;-82
2021/01/19 21:47:53;;;;;;;1.30;0.68;;;5.40;82.60;;;;;;6196985;23;20011;-81
2021/01/19 21:50:19;;;;;;;1.10;0.50;;;5.40;82.60;;;;;;6223789;23;20024;-82
2021/01/19 21:52:45;;;;;;;1.10;0.70;;;5.40;82.50;;;;;;6195261;23;20081;-83
2021/01/19 21:55:11;;;;;;;1.48;0.80;;;5.40;81.80;;;;;;6196249;23;20012;-82
2021/01/19 21:57:36;;;;;;;0.40;0.40;;;5.40;81.30;;;;;;6223295;23;20428;-83
2021/01/19 22:00:05;;;;;;;0.63;0.55;;;5.40;80.50;;;;;;6220815;23;20084;-82
2021/01/19 22:02:30;;;;;;;1.90;0.60;;;5.50;78.50;;;;;;6226643;23;20007;-81
2021/01/19 22:04:56;;;;;;;1.73;0.65;;;5.50;77.30;;;;;;6233562;23;20008;-80
2021/01/19 22:07:21;;;;;;;1.40;0.60;;;5.50;76.20;;;;;;6227045;23;20008;-82
2021/01/19 22:09:47;;;;;;;0.82;0.70;;;5.50;74.80;;;;;;6222075;23;20013;-82
2021/01/19 22:12:13;;;;;;;0.73;0.35;;;5.60;74.00;;;;;;6222629;23;20084;-83
2021/01/19 22:14:38;;;;;;;1.02;0.60;;;5.60;73.70;;;;;;6194442;23;20000;-83
2021/01/19 22:17:04;;;;;;;1.20;0.55;;;5.50;73.50;;;;;;6195457;23;20014;-82
2021/01/19 22:19:30;;;;;;;3.67;2.03;;;5.50;73.30;;;;;;6220460;23;20004;-82
2021/01/19 22:21:55;;;;;;;4.05;0.80;;;5.50;72.40;;;;;;6195329;23;20108;-83
2021/01/19 22:24:21;;;;;;;2.75;0.50;;;5.50;71.90;;;;;;6220259;23;20013;-82
2021/01/19 22:26:47;;;;;;;0.75;0.40;;;5.60;70.90;;;;;;6221104;23;20008;-82
2021/01/19 22:29:12;;;;;;;0.75;0.40;;;5.60;70.50;;;;;;6220996;23;20008;-82
2021/01/19 22:31:38;;;;;;;0.88;0.47;;;5.60;70.10;;;;;;6220098;23;20007;-83
2021/01/19 22:34:03;;;;;;;1.23;0.40;;;5.60;69.70;;;;;;6192926;23;20441;-82
2021/01/19 22:36:29;;;;;;;0.57;0.45;;;5.60;69.60;;;;;;6219633;23;20123;-83
2021/01/19 22:38:55;;;;;;;0.85;0.40;;;5.60;69.50;;;;;;6220843;23;20001;-82
2021/01/19 22:41:22;;;;;;;0.40;0.40;;;5.60;69.20;;;;;;6201646;23;20012;-82
2021/01/19 22:43:48;;;;;;;0.52;0.50;;;5.60;69.20;;;;;;6171447;23;20016;-83
2021/01/19 22:46:14;;;;;;;0.60;0.50;;;5.50;69.10;;;;;;6196013;23;20004;-83
2021/01/19 22:48:39;;;;;;;0.75;0.32;;;5.60;68.60;;;;;;6221888;23;20471;-83
2021/01/19 22:51:09;;;;;;;0.75;0.50;;;5.50;68.30;;;;;;6219990;23;20064;-83
2021/01/19 22:53:35;;;;;;;0.38;0.20;;;5.60;68.30;;;;;;6192449;23;20066;-84
2021/01/19 22:56:01;;;;;;;3.70;0.50;;;5.60;68.10;;;;;;6192970;23;20530;-84
2021/01/19 22:58:27;;;;;;;1.00;0.20;;;5.60;68.00;;;;;;6191557;23;20001;-84
2021/01/19 23:00:54;;;;;;;1.35;0.50;;;5.70;67.40;;;;;;6192047;23;20055;-85
2021/01/19 23:03:24;;;;;;;0.15;0.15;;;5.70;67.30;;;;;;6192049;23;19996;-84
2021/01/19 23:05:51;;;;;;;0.65;0.40;;;5.80;67.10;;;;;;6219684;23;20001;-84
2021/01/19 23:08:17;;;;;;;1.27;0.55;;;5.70;67.20;;;;;;6194368;23;20340;-86
2021/01/19 23:10:43;;;;;;;0.60;0.30;;;5.70;67.20;;;;;;6193135;23;20090;-86
2021/01/19 23:13:09;;;;;;;1.40;0.35;;;5.70;67.40;;;;;;6191081;23;20385;-85
2021/01/19 23:15:35;;;;;;;1.75;0.40;;;5.70;67.30;;;;;;6192292;23;20000;-85
2021/01/19 23:18:03;;;;;;;0.65;0.20;;;5.70;67.10;;;;;;6193205;23;20031;-85
2021/01/19 23:20:29;;;;;;;0.30;0.30;;;5.70;67.20;;;;;;6220686;23;19996;-86
2021/01/19 23:22:55;;;;;;;0.30;0.30;;;5.70;67.40;;;;;;6193790;23;20070;-86